createdAt,value
2022-12-25T00:00:46.386Z,91.45
2022-12-25T00:06:16.126Z,91.30
2022-12-25T00:11:23.396Z,91.40
2022-12-25T00:16:30.543Z,91.37
2022-12-25T00:21:37.768Z,91.41
2022-12-25T00:26:44.833Z,91.52
2022-12-25T00:31:52.003Z,91.61
2022-12-25T00:36:58.960Z,91.50
2022-12-25T00:42:21.394Z,91.58
2022-12-25T00:47:30.565Z,91.70
2022-12-25T00:52:37.620Z,91.71
2022-12-25T00:57:44.588Z,91.64
2022-12-25T01:02:51.712Z,91.63
2022-12-25T01:07:58.882Z,91.50
2022-12-25T01:13:05.767Z,91.49
2022-12-25T01:18:13.067Z,91.64
2022-12-25T01:23:20.426Z,91.67
2022-12-25T01:28:27.373Z,91.65
2022-12-25T01:33:35.750Z,91.61
2022-12-25T01:38:42.999Z,91.61
2022-12-25T01:44:05.771Z,91.40
2022-12-25T01:49:16.335Z,91.66
2022-12-25T01:54:28.388Z,91.79
2022-12-25T01:59:35.833Z,91.49
2022-12-25T02:04:49.447Z,91.33
2022-12-25T02:09:57.053Z,91.23
2022-12-25T02:15:07.038Z,91.38
2022-12-25T02:20:41.443Z,91.23
2022-12-25T02:26:04.623Z,91.26
2022-12-25T02:31:14.934Z,91.43
2022-12-25T02:36:27.943Z,91.69
2022-12-25T02:41:40.606Z,91.90
2022-12-25T02:47:05.906Z,92.09
2022-12-25T02:52:34.323Z,92.19
2022-12-25T02:58:04.425Z,92.26
2022-12-25T03:03:31.860Z,92.33
2022-12-25T03:08:43.541Z,92.28
2022-12-25T03:13:53.349Z,91.96
2022-12-25T03:19:21.330Z,92.07
2022-12-25T03:24:46.137Z,91.95
2022-12-25T03:30:11.021Z,91.93
2022-12-25T03:35:25.648Z,91.76
2022-12-25T03:40:58.128Z,92.10
2022-12-25T03:46:28.681Z,92.11
2022-12-25T03:51:58.569Z,92.08
2022-12-25T03:57:23.596Z,92.01
2022-12-25T04:02:48.297Z,91.78
2022-12-25T04:08:13.276Z,91.87
2022-12-25T04:13:47.033Z,91.82
2022-12-25T04:19:11.543Z,92.05
2022-12-25T04:24:36.448Z,91.92
2022-12-25T04:30:00.921Z,91.97
2022-12-25T04:35:26.757Z,92.56
2022-12-25T04:40:34.186Z,92.56
2022-12-25T04:45:41.116Z,92.49
2022-12-25T04:50:48.203Z,92.65
2022-12-25T04:56:03.526Z,92.70
2022-12-25T05:01:10.940Z,92.66
2022-12-25T05:06:17.979Z,92.65
2022-12-25T05:11:24.790Z,92.66
2022-12-25T05:16:31.836Z,92.79
2022-12-25T05:21:38.930Z,92.47
2022-12-25T05:26:45.921Z,92.44
2022-12-25T05:31:52.830Z,92.32
2022-12-25T05:36:59.972Z,92.14
2022-12-25T05:42:07.064Z,92.12
2022-12-25T05:47:13.991Z,92.04
2022-12-25T05:52:20.837Z,91.88
2022-12-25T05:57:29.155Z,91.75
2022-12-25T06:02:40.354Z,91.81
2022-12-25T06:07:47.581Z,91.85
2022-12-25T06:12:56.650Z,91.87
2022-12-25T06:18:03.992Z,91.81
2022-12-25T06:23:11.402Z,92.01
2022-12-25T06:28:18.414Z,92.06
2022-12-25T06:33:25.303Z,92.02
2022-12-25T06:38:32.702Z,91.91
2022-12-25T06:43:40.267Z,91.90
2022-12-25T06:48:49.603Z,91.84
2022-12-25T06:53:58.120Z,91.75
2022-12-25T06:59:07.015Z,91.74
2022-12-25T07:04:18.219Z,91.77
2022-12-25T07:09:25.147Z,91.88
2022-12-25T07:14:32.328Z,91.58
2022-12-25T07:19:44.696Z,91.71
2022-12-25T07:24:52.509Z,91.80
2022-12-25T07:29:59.387Z,91.73
2022-12-25T07:35:07.310Z,91.77
2022-12-25T07:40:15.183Z,91.81
2022-12-25T07:45:22.338Z,91.96
2022-12-25T07:50:29.277Z,92.03
2022-12-25T07:55:36.351Z,91.96
2022-12-25T08:00:43.297Z,92.26
2022-12-25T08:05:50.510Z,92.34
2022-12-25T08:10:57.501Z,92.30
2022-12-25T08:16:07.952Z,92.43
2022-12-25T08:21:16.005Z,92.55
2022-12-25T08:26:25.067Z,92.76
2022-12-25T08:31:33.461Z,92.87
2022-12-25T08:36:42.977Z,92.99
2022-12-25T08:41:50.258Z,93.11
2022-12-25T08:46:57.189Z,93.11
2022-12-25T08:52:04.075Z,93.12
2022-12-25T08:57:11.087Z,93.34
2022-12-25T09:02:19.790Z,93.32
2022-12-25T09:07:27.657Z,93.29
2022-12-25T09:12:37.927Z,93.19
2022-12-25T09:17:44.935Z,93.07
2022-12-25T09:22:52.099Z,93.18
2022-12-25T09:27:59.874Z,93.34
2022-12-25T09:33:07.251Z,93.40
2022-12-25T09:38:14.183Z,93.45
2022-12-25T09:43:24.635Z,93.41
2022-12-25T09:48:34.899Z,93.32
2022-12-25T09:53:46.358Z,93.24
2022-12-25T09:58:54.839Z,93.02
2022-12-25T10:04:40.614Z,93.04
2022-12-25T10:10:00.909Z,93.02
2022-12-25T10:15:31.102Z,93.01
2022-12-25T10:20:47.047Z,92.84
2022-12-25T10:25:55.274Z,92.71
2022-12-25T10:31:16.905Z,92.82
2022-12-25T10:36:26.998Z,92.74
2022-12-25T10:41:54.529Z,92.66
2022-12-25T10:47:03.213Z,92.53
2022-12-25T10:52:23.406Z,92.51
2022-12-25T10:57:30.538Z,92.59
2022-12-25T11:02:41.820Z,92.42
2022-12-25T11:07:55.123Z,92.24
2022-12-25T11:13:06.303Z,92.22
2022-12-25T11:18:25.592Z,92.08
2022-12-25T11:23:35.067Z,91.83
2022-12-25T11:28:45.965Z,91.76
2022-12-25T11:34:00.297Z,91.62
2022-12-25T11:39:21.749Z,91.57
2022-12-25T11:44:43.639Z,91.31
2022-12-25T11:49:53.961Z,90.97
2022-12-25T11:55:17.285Z,91.06
2022-12-25T12:00:26.635Z,90.86
2022-12-25T12:05:40.201Z,90.99
2022-12-25T12:11:16.095Z,90.77
2022-12-25T12:16:24.013Z,90.49
2022-12-25T12:21:32.819Z,90.18
2022-12-25T12:26:42.641Z,89.84
2022-12-25T12:31:52.290Z,89.72
2022-12-25T12:37:06.132Z,89.39
2022-12-25T12:42:20.157Z,88.67
2022-12-25T12:53:27.959Z,87.03
2022-12-25T12:58:45.329Z,86.00
2022-12-25T13:04:17.241Z,86.25
2022-12-25T13:09:36.681Z,86.21
2022-12-25T13:14:50.386Z,86.43
2022-12-25T13:20:02.403Z,86.54
2022-12-25T13:25:22.474Z,85.83
2022-12-25T13:30:34.164Z,85.16
2022-12-25T13:35:48.005Z,85.32
2022-12-25T13:41:16.693Z,85.83
2022-12-25T13:46:28.576Z,86.06
2022-12-25T13:51:35.868Z,86.18
2022-12-25T13:56:53.480Z,86.29
2022-12-25T14:02:04.282Z,86.18
2022-12-25T14:07:13.665Z,86.63
2022-12-25T14:12:21.417Z,86.73
2022-12-25T14:17:29.491Z,86.67
2022-12-25T14:22:38.690Z,86.74
2022-12-25T14:27:51.757Z,87.03
2022-12-25T14:32:59.954Z,87.19
2022-12-25T14:38:11.654Z,87.31
2022-12-25T14:43:26.952Z,87.36
2022-12-25T14:48:34.880Z,87.63
2022-12-25T14:53:51.364Z,87.70
2022-12-25T14:59:00.134Z,87.59
2022-12-25T15:04:14.390Z,87.86
2022-12-25T15:09:21.367Z,87.91
2022-12-25T15:14:32.182Z,88.00
2022-12-25T15:19:46.074Z,88.27
2022-12-25T15:25:00.372Z,88.08
2022-12-25T15:30:11.407Z,88.26
2022-12-25T15:35:22.294Z,88.32
2022-12-25T15:40:30.403Z,88.26
2022-12-25T15:45:38.393Z,88.42
2022-12-25T15:50:46.932Z,88.40
2022-12-25T15:55:54.229Z,88.42
2022-12-25T16:01:01.473Z,88.41
2022-12-25T16:06:11.097Z,88.51
2022-12-25T16:11:18.066Z,88.67
2022-12-25T16:16:25.899Z,88.59
2022-12-25T16:21:42.257Z,88.83
2022-12-25T16:26:49.484Z,88.92
2022-12-25T16:31:56.928Z,88.97
2022-12-25T16:37:04.465Z,89.04
2022-12-25T16:42:12.527Z,89.06
2022-12-25T16:47:24.004Z,89.07
2022-12-25T16:52:31.730Z,89.01
2022-12-25T16:57:40.905Z,89.13
2022-12-25T17:02:51.585Z,89.13
2022-12-25T17:08:04.105Z,89.12
2022-12-25T17:13:13.485Z,89.09
2022-12-25T17:18:22.539Z,89.11
2022-12-25T17:23:32.210Z,89.16
2022-12-25T17:28:42.373Z,89.01
2022-12-25T17:33:50.095Z,89.05
2022-12-25T17:39:04.609Z,89.10
2022-12-25T17:44:15.145Z,89.03
2022-12-25T17:49:23.614Z,89.05
2022-12-25T17:54:30.804Z,89.17
2022-12-25T17:59:37.795Z,89.02
2022-12-25T18:04:45.080Z,89.13
2022-12-25T18:09:51.954Z,89.16
2022-12-25T18:14:58.976Z,89.14
2022-12-25T18:20:07.137Z,89.23
2022-12-25T18:25:14.148Z,89.11
2022-12-25T18:30:21.518Z,89.29
2022-12-25T18:35:29.977Z,89.49
2022-12-25T18:40:40.685Z,89.38
2022-12-25T18:45:47.584Z,89.38
2022-12-25T18:50:59.516Z,89.59
2022-12-25T18:56:10.748Z,89.52
2022-12-25T19:01:19.486Z,89.51
2022-12-25T19:06:29.787Z,89.51
2022-12-25T19:11:42.062Z,89.44
2022-12-25T19:16:52.284Z,89.52
2022-12-25T19:22:00.034Z,89.51
2022-12-25T19:27:07.454Z,89.64
2022-12-25T19:32:14.419Z,89.64
2022-12-25T19:37:21.408Z,89.60
2022-12-25T19:42:28.330Z,89.52
2022-12-25T19:47:35.333Z,89.53
2022-12-25T19:52:42.161Z,89.58
2022-12-25T19:57:49.010Z,89.48
2022-12-25T20:02:56.003Z,89.36
2022-12-25T20:08:04.418Z,89.24
2022-12-25T20:13:11.350Z,89.26
2022-12-25T20:18:18.481Z,89.42
2022-12-25T20:23:25.783Z,89.47
2022-12-25T20:28:34.554Z,89.52
2022-12-25T20:33:42.178Z,89.44
2022-12-25T20:38:49.275Z,89.47
2022-12-25T20:43:56.465Z,89.60
2022-12-25T20:49:03.802Z,89.54
2022-12-25T20:54:12.782Z,89.79
2022-12-25T20:59:19.751Z,89.61
2022-12-25T21:04:29.233Z,89.81
2022-12-25T21:09:36.730Z,89.72
2022-12-25T21:14:43.700Z,89.73
2022-12-25T21:19:50.763Z,89.78
2022-12-25T21:24:57.731Z,89.65
2022-12-25T21:30:14.257Z,89.71
2022-12-25T21:35:22.946Z,89.87
2022-12-25T21:40:30.343Z,89.77
2022-12-25T21:45:37.595Z,89.78
2022-12-25T21:51:02.397Z,89.76
2022-12-25T21:56:09.977Z,89.60
2022-12-25T22:01:17.543Z,89.61
2022-12-25T22:06:43.946Z,89.69
2022-12-25T22:12:08.633Z,89.66
2022-12-25T22:17:33.541Z,89.66
2022-12-25T22:22:40.602Z,89.70
2022-12-25T22:27:48.763Z,89.59
2022-12-25T22:32:56.431Z,89.74
2022-12-25T22:38:03.306Z,89.82
2022-12-25T22:43:10.246Z,89.84
2022-12-25T22:48:17.360Z,89.92
2022-12-25T22:53:24.414Z,90.03
2022-12-25T22:58:32.582Z,89.96
2022-12-25T23:03:40.094Z,89.92
2022-12-25T23:08:52.909Z,89.95
2022-12-25T23:14:18.156Z,90.08
2022-12-25T23:19:43.464Z,90.09
2022-12-25T23:25:09.795Z,90.27
2022-12-25T23:30:22.882Z,90.12
2022-12-25T23:35:30.201Z,90.10
2022-12-25T23:40:37.623Z,90.16
2022-12-25T23:45:44.885Z,90.35
2022-12-25T23:50:52.169Z,90.24
2022-12-25T23:55:59.955Z,90.38
